sensor_id;sensor_type;location;lat;lon;timestamp;P1;durP1;ratioP1;P2;durP2;ratioP2
12367;SDS011;6248;49.812;6.620;2023-06-22T00:01:45;5.70;;;5.30;;
12367;SDS011;6248;49.812;6.620;2023-06-22T00:04:13;6.88;;;6.18;;
12367;SDS011;6248;49.812;6.620;2023-06-22T00:06:40;6.50;;;5.50;;
12367;SDS011;6248;49.812;6.620;2023-06-22T00:09:08;6.03;;;5.53;;
12367;SDS011;6248;49.812;6.620;2023-06-22T00:11:35;5.70;;;5.30;;
12367;SDS011;6248;49.812;6.620;2023-06-22T00:14:02;6.53;;;5.60;;
12367;SDS011;6248;49.812;6.620;2023-06-22T00:16:30;5.63;;;5.13;;
12367;SDS011;6248;49.812;6.620;2023-06-22T00:18:58;6.75;;;6.05;;
12367;SDS011;6248;49.812;6.620;2023-06-22T00:21:28;6.72;;;5.97;;
12367;SDS011;6248;49.812;6.620;2023-06-22T00:23:55;8.65;;;6.53;;
12367;SDS011;6248;49.812;6.620;2023-06-22T00:26:23;8.23;;;6.25;;
12367;SDS011;6248;49.812;6.620;2023-06-22T00:28:50;6.45;;;5.88;;
12367;SDS011;6248;49.812;6.620;2023-06-22T00:31:17;6.50;;;5.85;;
12367;SDS011;6248;49.812;6.620;2023-06-22T00:33:45;6.85;;;5.57;;
12367;SDS011;6248;49.812;6.620;2023-06-22T00:36:12;6.57;;;5.97;;
12367;SDS011;6248;49.812;6.620;2023-06-22T00:38:42;6.40;;;5.70;;
12367;SDS011;6248;49.812;6.620;2023-06-22T00:41:09;6.47;;;5.88;;
12367;SDS011;6248;49.812;6.620;2023-06-22T00:43:36;6.75;;;6.15;;
12367;SDS011;6248;49.812;6.620;2023-06-22T00:46:04;7.25;;;6.55;;
12367;SDS011;6248;49.812;6.620;2023-06-22T00:48:31;7.32;;;6.65;;
12367;SDS011;6248;49.812;6.620;2023-06-22T00:50:58;5.82;;;5.43;;
12367;SDS011;6248;49.812;6.620;2023-06-22T00:53:25;7.60;;;6.90;;
12367;SDS011;6248;49.812;6.620;2023-06-22T00:55:54;7.20;;;6.50;;
12367;SDS011;6248;49.812;6.620;2023-06-22T00:58:24;6.50;;;6.00;;
12367;SDS011;6248;49.812;6.620;2023-06-22T01:00:52;7.18;;;6.57;;
12367;SDS011;6248;49.812;6.620;2023-06-22T01:03:19;6.97;;;6.35;;
12367;SDS011;6248;49.812;6.620;2023-06-22T01:05:47;6.43;;;5.80;;
12367;SDS011;6248;49.812;6.620;2023-06-22T01:08:17;6.47;;;5.97;;
12367;SDS011;6248;49.812;6.620;2023-06-22T01:10:48;7.07;;;6.50;;
12367;SDS011;6248;49.812;6.620;2023-06-22T01:13:21;7.03;;;6.38;;
12367;SDS011;6248;49.812;6.620;2023-06-22T01:15:53;6.93;;;6.25;;
12367;SDS011;6248;49.812;6.620;2023-06-22T01:18:22;6.35;;;5.85;;
12367;SDS011;6248;49.812;6.620;2023-06-22T01:20:50;5.97;;;5.50;;
12367;SDS011;6248;49.812;6.620;2023-06-22T01:23:20;7.18;;;6.43;;
12367;SDS011;6248;49.812;6.620;2023-06-22T01:25:53;7.10;;;6.50;;
12367;SDS011;6248;49.812;6.620;2023-06-22T01:28:31;7.28;;;6.68;;
12367;SDS011;6248;49.812;6.620;2023-06-22T01:30:58;6.93;;;6.43;;
12367;SDS011;6248;49.812;6.620;2023-06-22T01:33:31;7.28;;;6.68;;
12367;SDS011;6248;49.812;6.620;2023-06-22T01:35:59;7.85;;;7.15;;
12367;SDS011;6248;49.812;6.620;2023-06-22T01:38:27;7.40;;;6.70;;
12367;SDS011;6248;49.812;6.620;2023-06-22T01:40:56;9.85;;;8.93;;
12367;SDS011;6248;49.812;6.620;2023-06-22T01:43:23;9.20;;;8.30;;
12367;SDS011;6248;49.812;6.620;2023-06-22T01:45:53;8.00;;;7.40;;
12367;SDS011;6248;49.812;6.620;2023-06-22T01:48:20;7.38;;;6.72;;
12367;SDS011;6248;49.812;6.620;2023-06-22T01:50:48;7.30;;;6.43;;
12367;SDS011;6248;49.812;6.620;2023-06-22T01:53:15;7.43;;;6.78;;
12367;SDS011;6248;49.812;6.620;2023-06-22T01:55:43;7.10;;;6.45;;
12367;SDS011;6248;49.812;6.620;2023-06-22T01:58:10;6.13;;;5.63;;
12367;SDS011;6248;49.812;6.620;2023-06-22T02:00:37;6.80;;;6.30;;
12367;SDS011;6248;49.812;6.620;2023-06-22T02:03:08;6.20;;;5.70;;
12367;SDS011;6248;49.812;6.620;2023-06-22T02:05:38;6.88;;;6.18;;
12367;SDS011;6248;49.812;6.620;2023-06-22T02:08:08;6.65;;;6.03;;
12367;SDS011;6248;49.812;6.620;2023-06-22T02:10:36;6.47;;;5.97;;
12367;SDS011;6248;49.812;6.620;2023-06-22T02:13:06;7.25;;;6.65;;
12367;SDS011;6248;49.812;6.620;2023-06-22T02:15:34;6.57;;;5.97;;
12367;SDS011;6248;49.812;6.620;2023-06-22T02:18:01;8.88;;;7.55;;
12367;SDS011;6248;49.812;6.620;2023-06-22T02:20:30;8.32;;;7.63;;
12367;SDS011;6248;49.812;6.620;2023-06-22T02:22:57;7.70;;;7.00;;
12367;SDS011;6248;49.812;6.620;2023-06-22T02:25:24;7.32;;;6.72;;
12367;SDS011;6248;49.812;6.620;2023-06-22T02:27:51;7.78;;;7.07;;
12367;SDS011;6248;49.812;6.620;2023-06-22T02:30:18;8.02;;;7.32;;
12367;SDS011;6248;49.812;6.620;2023-06-22T02:32:46;8.10;;;7.30;;
12367;SDS011;6248;49.812;6.620;2023-06-22T02:35:13;8.35;;;7.65;;
12367;SDS011;6248;49.812;6.620;2023-06-22T02:37:42;7.90;;;7.20;;
12367;SDS011;6248;49.812;6.620;2023-06-22T02:40:09;6.82;;;6.22;;
12367;SDS011;6248;49.812;6.620;2023-06-22T02:42:36;7.68;;;6.97;;
12367;SDS011;6248;49.812;6.620;2023-06-22T02:45:04;8.13;;;7.43;;
12367;SDS011;6248;49.812;6.620;2023-06-22T02:47:31;7.57;;;6.97;;
12367;SDS011;6248;49.812;6.620;2023-06-22T02:49:59;7.82;;;7.13;;
12367;SDS011;6248;49.812;6.620;2023-06-22T02:52:26;7.32;;;6.78;;
12367;SDS011;6248;49.812;6.620;2023-06-22T02:54:55;8.18;;;7.38;;
12367;SDS011;6248;49.812;6.620;2023-06-22T02:57:22;7.72;;;7.03;;
12367;SDS011;6248;49.812;6.620;2023-06-22T02:59:49;8.43;;;7.63;;
12367;SDS011;6248;49.812;6.620;2023-06-22T03:02:16;7.85;;;7.15;;
12367;SDS011;6248;49.812;6.620;2023-06-22T03:04:46;8.15;;;7.45;;
12367;SDS011;6248;49.812;6.620;2023-06-22T03:07:14;7.68;;;7.10;;
12367;SDS011;6248;49.812;6.620;2023-06-22T03:09:42;8.07;;;7.47;;
12367;SDS011;6248;49.812;6.620;2023-06-22T03:12:10;7.72;;;7.05;;
12367;SDS011;6248;49.812;6.620;2023-06-22T03:14:38;9.52;;;7.68;;
12367;SDS011;6248;49.812;6.620;2023-06-22T03:17:05;7.88;;;7.10;;
12367;SDS011;6248;49.812;6.620;2023-06-22T03:19:32;8.45;;;7.72;;
12367;SDS011;6248;49.812;6.620;2023-06-22T03:22:00;7.25;;;6.55;;
12367;SDS011;6248;49.812;6.620;2023-06-22T03:24:27;7.25;;;6.65;;
12367;SDS011;6248;49.812;6.620;2023-06-22T03:26:55;8.25;;;7.05;;
12367;SDS011;6248;49.812;6.620;2023-06-22T03:29:24;7.75;;;7.15;;
12367;SDS011;6248;49.812;6.620;2023-06-22T03:31:51;8.05;;;7.35;;
12367;SDS011;6248;49.812;6.620;2023-06-22T03:34:18;6.90;;;6.40;;
12367;SDS011;6248;49.812;6.620;2023-06-22T03:36:45;7.07;;;6.40;;
12367;SDS011;6248;49.812;6.620;2023-06-22T03:39:12;9.57;;;7.25;;
12367;SDS011;6248;49.812;6.620;2023-06-22T03:41:40;7.40;;;6.80;;
12367;SDS011;6248;49.812;6.620;2023-06-22T03:44:07;7.13;;;6.45;;
12367;SDS011;6248;49.812;6.620;2023-06-22T03:46:38;7.68;;;7.07;;
12367;SDS011;6248;49.812;6.620;2023-06-22T03:49:06;7.70;;;7.05;;
12367;SDS011;6248;49.812;6.620;2023-06-22T03:51:33;7.88;;;7.20;;
12367;SDS011;6248;49.812;6.620;2023-06-22T03:54:00;7.95;;;6.85;;
12367;SDS011;6248;49.812;6.620;2023-06-22T03:56:28;7.90;;;7.10;;
12367;SDS011;6248;49.812;6.620;2023-06-22T03:58:55;7.85;;;7.13;;
12367;SDS011;6248;49.812;6.620;2023-06-22T04:01:22;6.97;;;6.38;;
12367;SDS011;6248;49.812;6.620;2023-06-22T04:03:50;8.45;;;7.60;;
12367;SDS011;6248;49.812;6.620;2023-06-22T04:06:18;7.63;;;7.03;;
12367;SDS011;6248;49.812;6.620;2023-06-22T04:08:45;7.88;;;7.28;;
12367;SDS011;6248;49.812;6.620;2023-06-22T04:11:15;8.20;;;7.40;;
12367;SDS011;6248;49.812;6.620;2023-06-22T04:13:43;7.38;;;6.72;;
12367;SDS011;6248;49.812;6.620;2023-06-22T04:16:10;7.88;;;7.18;;
12367;SDS011;6248;49.812;6.620;2023-06-22T04:18:37;7.22;;;6.57;;
12367;SDS011;6248;49.812;6.620;2023-06-22T04:21:06;7.85;;;7.15;;
12367;SDS011;6248;49.812;6.620;2023-06-22T04:23:33;7.47;;;6.78;;
12367;SDS011;6248;49.812;6.620;2023-06-22T04:26:00;7.78;;;6.82;;
12367;SDS011;6248;49.812;6.620;2023-06-22T04:28:28;7.20;;;6.47;;
12367;SDS011;6248;49.812;6.620;2023-06-22T04:30:59;7.20;;;6.60;;
12367;SDS011;6248;49.812;6.620;2023-06-22T04:33:27;8.18;;;6.75;;
12367;SDS011;6248;49.812;6.620;2023-06-22T04:35:55;8.10;;;7.40;;
12367;SDS011;6248;49.812;6.620;2023-06-22T04:38:24;7.43;;;6.72;;
12367;SDS011;6248;49.812;6.620;2023-06-22T04:40:51;7.47;;;6.78;;
12367;SDS011;6248;49.812;6.620;2023-06-22T04:43:19;7.60;;;6.90;;
12367;SDS011;6248;49.812;6.620;2023-06-22T04:45:46;7.60;;;6.68;;
12367;SDS011;6248;49.812;6.620;2023-06-22T04:48:17;7.88;;;7.18;;
12367;SDS011;6248;49.812;6.620;2023-06-22T04:50:44;6.72;;;6.20;;
12367;SDS011;6248;49.812;6.620;2023-06-22T04:53:12;8.75;;;7.07;;
12367;SDS011;6248;49.812;6.620;2023-06-22T04:55:40;7.32;;;6.72;;
12367;SDS011;6248;49.812;6.620;2023-06-22T04:58:11;8.02;;;7.22;;
12367;SDS011;6248;49.812;6.620;2023-06-22T05:00:39;7.82;;;7.07;;
12367;SDS011;6248;49.812;6.620;2023-06-22T05:03:06;7.53;;;6.88;;
12367;SDS011;6248;49.812;6.620;2023-06-22T05:05:36;7.32;;;6.55;;
12367;SDS011;6248;49.812;6.620;2023-06-22T05:08:04;6.90;;;6.40;;
12367;SDS011;6248;49.812;6.620;2023-06-22T05:10:37;7.10;;;6.50;;
12367;SDS011;6248;49.812;6.620;2023-06-22T05:13:07;7.30;;;6.60;;
12367;SDS011;6248;49.812;6.620;2023-06-22T05:15:35;7.22;;;6.60;;
12367;SDS011;6248;49.812;6.620;2023-06-22T05:18:06;7.43;;;6.72;;
12367;SDS011;6248;49.812;6.620;2023-06-22T05:20:37;6.95;;;6.32;;
12367;SDS011;6248;49.812;6.620;2023-06-22T05:23:05;7.10;;;6.15;;
12367;SDS011;6248;49.812;6.620;2023-06-22T05:25:32;6.85;;;6.18;;
12367;SDS011;6248;49.812;6.620;2023-06-22T05:28:00;6.82;;;6.22;;
12367;SDS011;6248;49.812;6.620;2023-06-22T05:30:38;7.43;;;6.72;;
12367;SDS011;6248;49.812;6.620;2023-06-22T05:33:05;7.15;;;6.15;;
12367;SDS011;6248;49.812;6.620;2023-06-22T05:35:36;7.25;;;6.57;;
12367;SDS011;6248;49.812;6.620;2023-06-22T05:38:09;6.30;;;5.82;;
12367;SDS011;6248;49.812;6.620;2023-06-22T05:40:38;7.40;;;6.80;;
12367;SDS011;6248;49.812;6.620;2023-06-22T05:43:11;7.43;;;6.38;;
12367;SDS011;6248;49.812;6.620;2023-06-22T05:45:39;7.10;;;6.57;;
12367;SDS011;6248;49.812;6.620;2023-06-22T05:48:07;7.22;;;6.63;;
12367;SDS011;6248;49.812;6.620;2023-06-22T05:50:34;6.75;;;6.15;;
12367;SDS011;6248;49.812;6.620;2023-06-22T05:53:01;7.07;;;6.47;;
12367;SDS011;6248;49.812;6.620;2023-06-22T05:55:29;6.60;;;6.07;;
12367;SDS011;6248;49.812;6.620;2023-06-22T05:57:58;6.55;;;6.05;;
12367;SDS011;6248;49.812;6.620;2023-06-22T06:00:26;5.97;;;5.57;;
12367;SDS011;6248;49.812;6.620;2023-06-22T06:02:57;6.55;;;6.07;;
12367;SDS011;6248;49.812;6.620;2023-06-22T06:05:28;6.80;;;5.88;;
12367;SDS011;6248;49.812;6.620;2023-06-22T06:07:55;6.55;;;6.05;;
12367;SDS011;6248;49.812;6.620;2023-06-22T06:10:23;6.97;;;6.38;;
12367;SDS011;6248;49.812;6.620;2023-06-22T06:12:50;7.15;;;6.55;;
12367;SDS011;6248;49.812;6.620;2023-06-22T06:15:18;6.57;;;6.00;;
12367;SDS011;6248;49.812;6.620;2023-06-22T06:17:46;6.85;;;6.35;;
12367;SDS011;6248;49.812;6.620;2023-06-22T06:20:15;7.25;;;6.45;;
12367;SDS011;6248;49.812;6.620;2023-06-22T06:22:42;7.20;;;6.60;;
12367;SDS011;6248;49.812;6.620;2023-06-22T06:25:10;7.32;;;6.72;;
12367;SDS011;6248;49.812;6.620;2023-06-22T06:27:41;6.60;;;6.07;;
12367;SDS011;6248;49.812;6.620;2023-06-22T06:30:08;6.00;;;5.57;;
12367;SDS011;6248;49.812;6.620;2023-06-22T06:32:36;7.43;;;6.72;;
12367;SDS011;6248;49.812;6.620;2023-06-22T06:35:05;6.13;;;5.65;;
12367;SDS011;6248;49.812;6.620;2023-06-22T06:37:35;6.75;;;6.18;;
12367;SDS011;6248;49.812;6.620;2023-06-22T06:40:03;8.93;;;6.80;;
12367;SDS011;6248;49.812;6.620;2023-06-22T06:42:33;6.75;;;6.15;;
12367;SDS011;6248;49.812;6.620;2023-06-22T06:45:02;6.80;;;6.18;;
12367;SDS011;6248;49.812;6.620;2023-06-22T06:47:30;6.65;;;6.05;;
12367;SDS011;6248;49.812;6.620;2023-06-22T06:49:57;6.60;;;6.10;;
12367;SDS011;6248;49.812;6.620;2023-06-22T06:52:24;6.70;;;6.10;;
12367;SDS011;6248;49.812;6.620;2023-06-22T06:54:53;6.88;;;6.05;;
12367;SDS011;6248;49.812;6.620;2023-06-22T06:57:21;6.18;;;5.68;;
12367;SDS011;6248;49.812;6.620;2023-06-22T06:59:49;6.78;;;6.25;;
12367;SDS011;6248;49.812;6.620;2023-06-22T07:02:16;6.93;;;6.32;;
12367;SDS011;6248;49.812;6.620;2023-06-22T07:04:44;6.85;;;6.13;;
12367;SDS011;6248;49.812;6.620;2023-06-22T07:07:11;6.30;;;5.80;;
12367;SDS011;6248;49.812;6.620;2023-06-22T07:09:39;6.28;;;5.68;;
12367;SDS011;6248;49.812;6.620;2023-06-22T07:12:08;7.43;;;5.95;;
12367;SDS011;6248;49.812;6.620;2023-06-22T07:14:35;6.57;;;6.13;;
12367;SDS011;6248;49.812;6.620;2023-06-22T07:17:03;6.47;;;5.88;;
12367;SDS011;6248;49.812;6.620;2023-06-22T07:19:30;6.95;;;6.35;;
12367;SDS011;6248;49.812;6.620;2023-06-22T07:21:57;6.85;;;6.25;;
12367;SDS011;6248;49.812;6.620;2023-06-22T07:24:25;6.15;;;5.70;;
12367;SDS011;6248;49.812;6.620;2023-06-22T07:26:52;6.50;;;5.93;;
12367;SDS011;6248;49.812;6.620;2023-06-22T07:29:21;5.88;;;5.43;;
12367;SDS011;6248;49.812;6.620;2023-06-22T07:31:49;7.13;;;6.63;;
12367;SDS011;6248;49.812;6.620;2023-06-22T07:34:18;6.40;;;5.82;;
12367;SDS011;6248;49.812;6.620;2023-06-22T07:36:45;6.57;;;6.07;;
12367;SDS011;6248;49.812;6.620;2023-06-22T07:39:13;7.07;;;6.47;;
12367;SDS011;6248;49.812;6.620;2023-06-22T07:41:40;6.25;;;5.65;;
12367;SDS011;6248;49.812;6.620;2023-06-22T07:44:08;6.88;;;6.28;;
12367;SDS011;6248;49.812;6.620;2023-06-22T07:46:36;7.75;;;6.03;;
12367;SDS011;6248;49.812;6.620;2023-06-22T07:49:04;6.53;;;6.03;;
12367;SDS011;6248;49.812;6.620;2023-06-22T07:51:33;6.72;;;6.15;;
12367;SDS011;6248;49.812;6.620;2023-06-22T07:54:00;6.63;;;5.95;;
12367;SDS011;6248;49.812;6.620;2023-06-22T07:56:28;6.55;;;6.03;;
12367;SDS011;6248;49.812;6.620;2023-06-22T07:58:55;7.05;;;5.95;;
12367;SDS011;6248;49.812;6.620;2023-06-22T08:01:24;6.50;;;5.90;;
12367;SDS011;6248;49.812;6.620;2023-06-22T08:03:55;6.43;;;5.80;;
12367;SDS011;6248;49.812;6.620;2023-06-22T08:06:22;6.47;;;5.97;;
12367;SDS011;6248;49.812;6.620;2023-06-22T08:08:50;6.57;;;5.97;;
12367;SDS011;6248;49.812;6.620;2023-06-22T08:11:24;7.10;;;6.50;;
12367;SDS011;6248;49.812;6.620;2023-06-22T08:13:51;6.15;;;5.68;;
12367;SDS011;6248;49.812;6.620;2023-06-22T08:16:20;7.47;;;6.28;;
12367;SDS011;6248;49.812;6.620;2023-06-22T08:18:48;7.10;;;6.50;;
12367;SDS011;6248;49.812;6.620;2023-06-22T08:21:17;6.60;;;6.10;;
12367;SDS011;6248;49.812;6.620;2023-06-22T08:23:44;6.00;;;5.50;;
12367;SDS011;6248;49.812;6.620;2023-06-22T08:26:11;6.63;;;6.03;;
12367;SDS011;6248;49.812;6.620;2023-06-22T08:28:38;6.40;;;5.90;;
12367;SDS011;6248;49.812;6.620;2023-06-22T08:31:06;6.88;;;6.18;;
12367;SDS011;6248;49.812;6.620;2023-06-22T08:33:37;7.07;;;6.22;;
12367;SDS011;6248;49.812;6.620;2023-06-22T08:36:04;7.03;;;6.32;;
12367;SDS011;6248;49.812;6.620;2023-06-22T08:38:34;6.35;;;5.68;;
12367;SDS011;6248;49.812;6.620;2023-06-22T08:41:02;6.80;;;5.85;;
12367;SDS011;6248;49.812;6.620;2023-06-22T08:43:29;6.13;;;5.63;;
12367;SDS011;6248;49.812;6.620;2023-06-22T08:45:56;7.35;;;6.18;;
12367;SDS011;6248;49.812;6.620;2023-06-22T08:48:23;7.63;;;6.35;;
12367;SDS011;6248;49.812;6.620;2023-06-22T08:50:51;6.47;;;5.90;;
12367;SDS011;6248;49.812;6.620;2023-06-22T08:53:18;6.03;;;5.53;;
12367;SDS011;6248;49.812;6.620;2023-06-22T08:55:47;7.78;;;6.60;;
12367;SDS011;6248;49.812;6.620;2023-06-22T08:58:16;6.80;;;6.20;;
12367;SDS011;6248;49.812;6.620;2023-06-22T09:00:45;6.63;;;6.10;;
12367;SDS011;6248;49.812;6.620;2023-06-22T09:03:12;7.72;;;6.60;;
12367;SDS011;6248;49.812;6.620;2023-06-22T09:05:40;6.70;;;5.95;;
12367;SDS011;6248;49.812;6.620;2023-06-22T09:08:07;7.55;;;6.55;;
12367;SDS011;6248;49.812;6.620;2023-06-22T09:10:34;7.00;;;6.15;;
12367;SDS011;6248;49.812;6.620;2023-06-22T09:13:03;7.65;;;6.85;;
12367;SDS011;6248;49.812;6.620;2023-06-22T09:15:30;9.70;;;7.90;;
12367;SDS011;6248;49.812;6.620;2023-06-22T09:17:59;17.05;;;8.82;;
12367;SDS011;6248;49.812;6.620;2023-06-22T09:20:26;15.43;;;9.32;;
12367;SDS011;6248;49.812;6.620;2023-06-22T09:22:54;10.82;;;9.27;;
12367;SDS011;6248;49.812;6.620;2023-06-22T09:25:21;11.38;;;9.07;;
12367;SDS011;6248;49.812;6.620;2023-06-22T09:27:48;10.23;;;9.00;;
12367;SDS011;6248;49.812;6.620;2023-06-22T09:30:17;11.00;;;8.98;;
12367;SDS011;6248;49.812;6.620;2023-06-22T09:32:44;10.75;;;8.95;;
12367;SDS011;6248;49.812;6.620;2023-06-22T09:35:12;10.77;;;9.63;;
12367;SDS011;6248;49.812;6.620;2023-06-22T09:37:39;11.73;;;9.85;;
12367;SDS011;6248;49.812;6.620;2023-06-22T09:40:07;10.98;;;9.98;;
12367;SDS011;6248;49.812;6.620;2023-06-22T09:42:36;9.23;;;8.43;;
12367;SDS011;6248;49.812;6.620;2023-06-22T09:45:04;8.38;;;7.40;;
12367;SDS011;6248;49.812;6.620;2023-06-22T09:47:33;8.38;;;7.10;;
12367;SDS011;6248;49.812;6.620;2023-06-22T09:50:00;11.05;;;8.35;;
12367;SDS011;6248;49.812;6.620;2023-06-22T09:52:27;8.50;;;7.65;;
12367;SDS011;6248;49.812;6.620;2023-06-22T09:54:55;8.65;;;7.80;;
12367;SDS011;6248;49.812;6.620;2023-06-22T09:57:22;8.30;;;7.60;;
12367;SDS011;6248;49.812;6.620;2023-06-22T09:59:50;8.82;;;8.07;;
12367;SDS011;6248;49.812;6.620;2023-06-22T10:02:17;7.47;;;6.78;;
12367;SDS011;6248;49.812;6.620;2023-06-22T10:04:46;6.50;;;6.00;;
12367;SDS011;6248;49.812;6.620;2023-06-22T10:07:13;8.57;;;7.88;;
12367;SDS011;6248;49.812;6.620;2023-06-22T10:09:40;8.95;;;8.05;;
12367;SDS011;6248;49.812;6.620;2023-06-22T10:12:08;8.65;;;7.95;;
12367;SDS011;6248;49.812;6.620;2023-06-22T10:14:35;9.00;;;8.30;;
12367;SDS011;6248;49.812;6.620;2023-06-22T10:17:03;9.13;;;8.32;;
12367;SDS011;6248;49.812;6.620;2023-06-22T10:19:32;8.38;;;7.68;;
12367;SDS011;6248;49.812;6.620;2023-06-22T10:22:03;9.40;;;8.60;;
12367;SDS011;6248;49.812;6.620;2023-06-22T10:24:31;9.02;;;8.32;;
12367;SDS011;6248;49.812;6.620;2023-06-22T10:26:58;9.40;;;8.60;;
12367;SDS011;6248;49.812;6.620;2023-06-22T10:29:26;8.32;;;7.63;;
12367;SDS011;6248;49.812;6.620;2023-06-22T10:31:53;9.15;;;8.25;;
12367;SDS011;6248;49.812;6.620;2023-06-22T10:34:21;9.32;;;7.88;;
12367;SDS011;6248;49.812;6.620;2023-06-22T10:36:48;8.95;;;8.13;;
12367;SDS011;6248;49.812;6.620;2023-06-22T10:39:16;9.23;;;8.40;;
12367;SDS011;6248;49.812;6.620;2023-06-22T10:41:44;8.15;;;7.55;;
12367;SDS011;6248;49.812;6.620;2023-06-22T10:44:11;7.60;;;7.00;;
12367;SDS011;6248;49.812;6.620;2023-06-22T10:46:38;9.02;;;8.13;;
12367;SDS011;6248;49.812;6.620;2023-06-22T10:49:06;8.45;;;7.65;;
12367;SDS011;6248;49.812;6.620;2023-06-22T10:51:33;10.30;;;8.82;;
12367;SDS011;6248;49.812;6.620;2023-06-22T10:54:00;8.00;;;7.40;;
12367;SDS011;6248;49.812;6.620;2023-06-22T10:56:30;7.75;;;6.82;;
12367;SDS011;6248;49.812;6.620;2023-06-22T10:58:58;8.45;;;7.65;;
12367;SDS011;6248;49.812;6.620;2023-06-22T11:01:26;8.50;;;7.80;;
12367;SDS011;6248;49.812;6.620;2023-06-22T11:03:56;9.45;;;8.52;;
12367;SDS011;6248;49.812;6.620;2023-06-22T11:06:23;8.15;;;7.45;;
12367;SDS011;6248;49.812;6.620;2023-06-22T11:08:51;8.38;;;7.68;;
12367;SDS011;6248;49.812;6.620;2023-06-22T11:11:18;8.43;;;7.80;;
12367;SDS011;6248;49.812;6.620;2023-06-22T11:13:47;8.30;;;7.55;;
12367;SDS011;6248;49.812;6.620;2023-06-22T11:16:14;7.40;;;6.70;;
12367;SDS011;6248;49.812;6.620;2023-06-22T11:18:41;8.02;;;7.25;;
12367;SDS011;6248;49.812;6.620;2023-06-22T11:21:09;7.32;;;6.75;;
12367;SDS011;6248;49.812;6.620;2023-06-22T11:23:36;7.68;;;7.07;;
12367;SDS011;6248;49.812;6.620;2023-06-22T11:26:03;8.05;;;7.30;;
12367;SDS011;6248;49.812;6.620;2023-06-22T11:28:31;8.77;;;7.78;;
12367;SDS011;6248;49.812;6.620;2023-06-22T11:31:00;7.43;;;6.75;;
12367;SDS011;6248;49.812;6.620;2023-06-22T11:33:27;7.47;;;6.88;;
12367;SDS011;6248;49.812;6.620;2023-06-22T11:35:54;7.60;;;6.90;;
12367;SDS011;6248;49.812;6.620;2023-06-22T11:38:22;7.68;;;7.07;;
12367;SDS011;6248;49.812;6.620;2023-06-22T11:40:49;6.70;;;6.10;;
12367;SDS011;6248;49.812;6.620;2023-06-22T11:43:17;6.85;;;6.35;;
12367;SDS011;6248;49.812;6.620;2023-06-22T11:45:44;6.35;;;5.85;;
12367;SDS011;6248;49.812;6.620;2023-06-22T11:48:13;6.78;;;6.28;;
12367;SDS011;6248;49.812;6.620;2023-06-22T11:50:40;6.50;;;5.90;;
12367;SDS011;6248;49.812;6.620;2023-06-22T11:53:07;7.07;;;6.18;;
12367;SDS011;6248;49.812;6.620;2023-06-22T11:55:35;6.55;;;6.03;;
12367;SDS011;6248;49.812;6.620;2023-06-22T11:58:03;6.50;;;5.95;;
12367;SDS011;6248;49.812;6.620;2023-06-22T12:00:31;6.47;;;5.97;;
12367;SDS011;6248;49.812;6.620;2023-06-22T12:02:59;7.80;;;6.30;;
12367;SDS011;6248;49.812;6.620;2023-06-22T12:05:27;7.40;;;6.70;;
12367;SDS011;6248;49.812;6.620;2023-06-22T12:07:55;7.30;;;6.70;;
12367;SDS011;6248;49.812;6.620;2023-06-22T12:10:22;7.07;;;6.38;;
12367;SDS011;6248;49.812;6.620;2023-06-22T12:12:50;7.00;;;6.43;;
12367;SDS011;6248;49.812;6.620;2023-06-22T12:15:18;6.68;;;6.07;;
12367;SDS011;6248;49.812;6.620;2023-06-22T12:17:45;7.60;;;6.00;;
12367;SDS011;6248;49.812;6.620;2023-06-22T12:20:13;6.93;;;6.32;;
12367;SDS011;6248;49.812;6.620;2023-06-22T12:22:45;8.10;;;6.35;;
12367;SDS011;6248;49.812;6.620;2023-06-22T12:25:12;6.95;;;6.22;;
12367;SDS011;6248;49.812;6.620;2023-06-22T12:27:40;6.18;;;5.70;;
12367;SDS011;6248;49.812;6.620;2023-06-22T12:30:08;6.40;;;5.78;;
12367;SDS011;6248;49.812;6.620;2023-06-22T12:32:35;8.05;;;6.55;;
12367;SDS011;6248;49.812;6.620;2023-06-22T12:35:03;6.20;;;5.60;;
12367;SDS011;6248;49.812;6.620;2023-06-22T12:37:32;7.85;;;6.18;;
12367;SDS011;6248;49.812;6.620;2023-06-22T12:40:01;6.35;;;5.82;;
12367;SDS011;6248;49.812;6.620;2023-06-22T12:42:32;6.72;;;6.13;;
12367;SDS011;6248;49.812;6.620;2023-06-22T12:44:59;7.10;;;5.72;;
12367;SDS011;6248;49.812;6.620;2023-06-22T12:47:27;6.30;;;5.70;;
12367;SDS011;6248;49.812;6.620;2023-06-22T12:49:54;8.60;;;5.88;;
12367;SDS011;6248;49.812;6.620;2023-06-22T12:52:22;6.35;;;5.80;;
12367;SDS011;6248;49.812;6.620;2023-06-22T12:54:49;7.35;;;5.82;;
12367;SDS011;6248;49.812;6.620;2023-06-22T12:57:18;6.18;;;5.38;;
12367;SDS011;6248;49.812;6.620;2023-06-22T12:59:46;6.75;;;6.00;;
12367;SDS011;6248;49.812;6.620;2023-06-22T13:02:13;6.63;;;6.03;;
12367;SDS011;6248;49.812;6.620;2023-06-22T13:04:41;7.20;;;6.57;;
12367;SDS011;6248;49.812;6.620;2023-06-22T13:07:12;7.43;;;6.72;;
12367;SDS011;6248;49.812;6.620;2023-06-22T13:09:39;7.22;;;6.63;;
12367;SDS011;6248;49.812;6.620;2023-06-22T13:12:07;7.20;;;6.60;;
12367;SDS011;6248;49.812;6.620;2023-06-22T13:14:36;7.82;;;5.97;;
12367;SDS011;6248;49.812;6.620;2023-06-22T13:17:04;7.97;;;6.80;;
12367;SDS011;6248;49.812;6.620;2023-06-22T13:19:31;7.80;;;6.68;;
12367;SDS011;6248;49.812;6.620;2023-06-22T13:21:59;12.07;;;7.20;;
12367;SDS011;6248;49.812;6.620;2023-06-22T13:24:27;14.13;;;8.43;;
12367;SDS011;6248;49.812;6.620;2023-06-22T13:26:55;10.18;;;8.57;;
12367;SDS011;6248;49.812;6.620;2023-06-22T13:29:22;16.17;;;8.98;;
12367;SDS011;6248;49.812;6.620;2023-06-22T13:31:51;13.63;;;9.38;;
12367;SDS011;6248;49.812;6.620;2023-06-22T13:34:22;19.55;;;8.73;;
12367;SDS011;6248;49.812;6.620;2023-06-22T13:36:49;13.63;;;5.78;;
12367;SDS011;6248;49.812;6.620;2023-06-22T13:39:16;9.32;;;5.30;;
12367;SDS011;6248;49.812;6.620;2023-06-22T13:41:43;5.63;;;4.43;;
12367;SDS011;6248;49.812;6.620;2023-06-22T13:44:10;7.25;;;4.22;;
12367;SDS011;6248;49.812;6.620;2023-06-22T13:46:37;6.60;;;3.85;;
12367;SDS011;6248;49.812;6.620;2023-06-22T13:49:06;11.05;;;3.95;;
12367;SDS011;6248;49.812;6.620;2023-06-22T13:51:33;9.93;;;3.72;;
12367;SDS011;6248;49.812;6.620;2023-06-22T13:54:01;5.38;;;3.72;;
12367;SDS011;6248;49.812;6.620;2023-06-22T13:56:28;6.53;;;3.53;;
12367;SDS011;6248;49.812;6.620;2023-06-22T13:58:56;5.75;;;3.22;;
12367;SDS011;6248;49.812;6.620;2023-06-22T14:01:23;6.43;;;3.80;;
12367;SDS011;6248;49.812;6.620;2023-06-22T14:03:51;6.05;;;3.20;;
12367;SDS011;6248;49.812;6.620;2023-06-22T14:06:20;8.20;;;3.50;;
12367;SDS011;6248;49.812;6.620;2023-06-22T14:08:48;7.88;;;3.63;;
12367;SDS011;6248;49.812;6.620;2023-06-22T14:11:16;6.43;;;3.90;;
12367;SDS011;6248;49.812;6.620;2023-06-22T14:13:43;7.18;;;3.70;;
12367;SDS011;6248;49.812;6.620;2023-06-22T14:16:11;6.20;;;3.30;;
12367;SDS011;6248;49.812;6.620;2023-06-22T14:18:44;4.97;;;3.15;;
12367;SDS011;6248;49.812;6.620;2023-06-22T14:21:16;7.93;;;3.40;;
12367;SDS011;6248;49.812;6.620;2023-06-22T14:23:45;6.05;;;3.67;;
12367;SDS011;6248;49.812;6.620;2023-06-22T14:26:14;6.05;;;3.10;;
12367;SDS011;6248;49.812;6.620;2023-06-22T14:28:42;6.15;;;3.10;;
12367;SDS011;6248;49.812;6.620;2023-06-22T14:31:12;6.05;;;3.42;;
12367;SDS011;6248;49.812;6.620;2023-06-22T14:33:40;4.05;;;3.03;;
12367;SDS011;6248;49.812;6.620;2023-06-22T14:36:07;5.93;;;3.30;;
12367;SDS011;6248;49.812;6.620;2023-06-22T14:38:34;5.10;;;2.97;;
12367;SDS011;6248;49.812;6.620;2023-06-22T14:41:03;8.05;;;3.50;;
12367;SDS011;6248;49.812;6.620;2023-06-22T14:43:30;6.57;;;3.55;;
12367;SDS011;6248;49.812;6.620;2023-06-22T14:45:57;3.88;;;2.90;;
12367;SDS011;6248;49.812;6.620;2023-06-22T14:48:24;5.40;;;3.20;;
12367;SDS011;6248;49.812;6.620;2023-06-22T14:50:51;6.57;;;3.50;;
12367;SDS011;6248;49.812;6.620;2023-06-22T14:53:19;10.95;;;3.35;;
12367;SDS011;6248;49.812;6.620;2023-06-22T14:55:47;7.90;;;2.85;;
12367;SDS011;6248;49.812;6.620;2023-06-22T14:58:15;6.30;;;2.97;;
12367;SDS011;6248;49.812;6.620;2023-06-22T15:00:42;4.40;;;2.88;;
12367;SDS011;6248;49.812;6.620;2023-06-22T15:03:09;4.00;;;3.00;;
12367;SDS011;6248;49.812;6.620;2023-06-22T15:05:42;4.13;;;2.60;;